Flight Track Log - Related Links

Times and Time Zones

All times are in EDT time to prevent confusion due to time zone crossing. See the UAL6858 flight status page for this flight to view local times or setup timezone preferences in your user account.

Time Position Orientation Groundspeed Altitude Reporting Facility
EDT Latitude Longitude Course Direction KTS MPH feet Rate Location/Type
Tue 01:42:53 AM 36.0892 -80.1742 321° Northwest 198 228 3,800  Level Atlanta Center
Tue 01:43:53 AM 36.0442 -80.2022 207° Southwest 179 206 7,100 3,850 Climbing Atlanta Center
Tue 01:44:53 AM 36.0239 -80.2853 253° West 191 220 11,500 3,700 Climbing Atlanta Center
Tue 01:45:53 AM 35.9894 -80.3894 248° West 259 298 14,500 3,250 Climbing Atlanta Center
Tue 01:46:53 AM 35.9511 -80.5042 248° West 319 367 18,000 3,650 Climbing Atlanta Center
Tue 01:47:53 AM 35.9092 -80.6417 249° West 368 423 21,800 3,400 Climbing Atlanta Center
Tue 01:48:00 AM 36.5626 -80.7626 321° Northwest  Level FlightAware Approximate
Tue 01:48:53 AM 35.8686 -80.7664 248° West 386 444 24,800  Level Atlanta Center
Tue 01:49:53 AM 35.8283 -80.8986 249° West 406 467 27,500 2,850 Climbing Atlanta Center
Tue 01:50:53 AM 35.7858 -81.0333 249° West 413 475 30,500 2,900 Climbing Atlanta Center
Tue 01:51:53 AM 35.7469 -81.1578 249° West 408 470 33,300 2,200 Climbing Atlanta Center
Tue 01:52:53 AM 35.7061 -81.2894 249° West 408 470 34,900 2,150 Climbing Atlanta Center
Tue 01:53:53 AM 35.6633 -81.4214 248° West 415 478 37,600 2,200 Climbing Atlanta Center
Tue 01:54:53 AM 35.6200 -81.5453 247° West 408 470 39,300 1,200 Climbing Atlanta Center
Tue 01:55:53 AM 35.5786 -81.6692 248° West 396 456 40,000 350 Climbing Atlanta Center
Tue 01:56:53 AM 35.5369 -81.7928 248° West 396 456 40,000  Level Atlanta Center
Tue 01:57:53 AM 35.4956 -81.9164 248° West 396 456 40,000  Level Atlanta Center
Tue 01:58:53 AM 35.4558 -82.0400 249° West 396 456 40,000  Level Atlanta Center
Tue 01:59:53 AM 35.4139 -82.1658 248° West 396 456 40,000  Level Atlanta Center
Tue 02:00:53 AM 35.3719 -82.2864 247° West 396 456 40,000  Level Atlanta Center
Tue 02:01:53 AM 35.3297 -82.4119 248° West 396 456 40,000  Level Atlanta Center
Tue 02:02:53 AM 35.2936 -82.5197 248° West 391 450 40,000  Level Atlanta Center
Tue 02:03:53 AM 35.2514 -82.6425 247° West 391 450 40,000  Level Atlanta Center
Tue 02:04:53 AM 35.2047 -82.7756 247° West 397 457 40,000  Level Atlanta Center
Tue 02:05:53 AM 35.1642 -82.8981 248° West 397 457 40,000  Level Atlanta Center
Tue 02:06:53 AM 35.1214 -83.0181 246° West 397 457 40,000  Level Atlanta Center
Tue 02:07:53 AM 35.0786 -83.1428 247° West 397 457 40,000  Level Atlanta Center
Tue 02:08:53 AM 35.0356 -83.2650 247° West 397 457 40,000  Level Atlanta Center
Tue 02:09:53 AM 34.9925 -83.3847 246° West 397 457 40,000  Level Atlanta Center
Tue 02:10:53 AM 34.9492 -83.5092 247° West 392 451 40,000  Level Atlanta Center
Tue 02:11:53 AM 34.9058 -83.6283 246° West 397 457 40,000  Level Atlanta Center
Tue 02:12:53 AM 34.8644 -83.7528 248° West 397 457 40,000  Level Atlanta Center
Tue 02:13:53 AM 34.8208 -83.8742 246° West 397 457 40,000  Level Atlanta Center
Tue 02:14:53 AM 34.7753 -84.0008 246° West 397 457 40,000  Level Atlanta Center
Tue 02:15:53 AM 34.7314 -84.1247 247° West 397 457 40,000  Level Atlanta Center
Tue 02:16:53 AM 34.6894 -84.2458 247° West 397 457 40,000  Level Atlanta Center
Tue 02:17:53 AM 34.6475 -84.3694 248° West 399 459 40,000  Level Atlanta Center
Tue 02:18:53 AM 34.6033 -84.4906 246° West 399 459 40,000  Level Atlanta Center
Tue 02:19:53 AM 34.5611 -84.6089 247° West 399 459 40,000  Level Atlanta Center
Tue 02:20:53 AM 34.5167 -84.7294 246° West 394 453 40,000  Level Atlanta Center
Tue 02:21:53 AM 34.4719 -84.8500 246° West 394 453 40,000  Level Atlanta Center
Tue 02:22:53 AM 34.4358 -84.9556 247° West 394 453 40,000  Level Atlanta Center
Tue 02:23:53 AM 34.3911 -85.0758 246° West 394 453 40,000  Level Atlanta Center
Tue 02:24:53 AM 34.3461 -85.1911 245° Southwest 394 453 40,000  Level Atlanta Center
Tue 02:25:53 AM 34.3033 -85.3086 246° West 394 453 40,000  Level Atlanta Center
Tue 02:26:53 AM 34.2603 -85.4286 247° West 394 453 40,000  Level Atlanta Center
Tue 02:27:53 AM 34.2150 -85.5436 245° Southwest 394 453 40,000  Level Atlanta Center
Tue 02:28:53 AM 34.1717 -85.6608 246° West 388 447 40,000  Level Atlanta Center
Tue 02:29:53 AM 34.1286 -85.7753 246° West 388 447 40,000  Level Atlanta Center
Tue 02:30:53 AM 34.0875 -85.8725 243° Southwest 375 432 40,000  Level Atlanta Center
Tue 02:31:53 AM 34.0394 -85.9992 245° Southwest 375 432 40,000  Level Atlanta Center
Tue 02:32:53 AM 33.9958 -86.1158 246° West 385 443 40,000  Level Atlanta Center
Tue 02:33:53 AM 33.9500 -86.2325 245° Southwest 385 443 40,000  Level Atlanta Center
Tue 02:34:53 AM 33.9061 -86.3489 246° West 385 443 40,000  Level Atlanta Center
Tue 02:35:53 AM 33.8622 -86.4653 246° West 385 443 40,000  Level Atlanta Center
Tue 02:36:53 AM 33.8161 -86.5817 245° Southwest 385 443 40,000  Level Atlanta Center
Tue 02:37:53 AM 33.7697 -86.7003 245° Southwest 385 443 40,000  Level Atlanta Center
Tue 02:38:53 AM 33.7253 -86.8161 245° Southwest 385 443 40,000  Level Atlanta Center
Tue 02:39:53 AM 33.6789 -86.9319 244° Southwest 385 443 40,000  Level Atlanta Center
Tue 02:40:53 AM 33.6344 -87.0478 245° Southwest 390 449 40,000  Level Atlanta Center
Tue 02:41:53 AM 33.5875 -87.1683 245° Southwest 390 449 40,000  Level Atlanta Center
Tue 02:42:53 AM 33.5428 -87.2814 245° Southwest 390 449 40,000  Level Atlanta Center
Tue 02:43:56 AM 33.4908 -87.4181 246° West 376 433 40,000  Level Memphis Center
Tue 02:44:56 AM 33.4414 -87.5342 243° Southwest 383 441 40,000  Level Memphis Center
Tue 02:45:56 AM 33.3961 -87.6525 245° Southwest 388 447 40,000  Level Memphis Center
Tue 02:46:56 AM 33.3544 -87.7583 245° Southwest 388 447 40,000  Level Memphis Center
Tue 02:47:56 AM 33.3089 -87.8739 245° Southwest 388 447 40,000  Level Memphis Center
Tue 02:48:56 AM 33.2631 -87.9919 245° Southwest 388 447 40,000  Level Memphis Center
Tue 02:49:56 AM 33.2172 -88.1050 244° Southwest 388 447 40,000  Level Memphis Center
Tue 02:50:56 AM 33.1711 -88.2178 244° Southwest 388 447 40,000  Level Memphis Center
Tue 02:51:56 AM 33.1292 -88.3331 247° West 388 447 40,000  Level Memphis Center
Tue 02:52:56 AM 33.0808 -88.4458 243° Southwest 388 447 40,000  Level Memphis Center
Tue 02:53:56 AM 33.0347 -88.5583 244° Southwest 388 447 40,000  Level Memphis Center
Tue 02:54:56 AM 32.9881 -88.6706 244° Southwest 388 447 40,000  Level Memphis Center
Tue 02:55:56 AM 32.9417 -88.7853 244° Southwest 388 447 40,000  Level Memphis Center
Tue 02:56:56 AM 32.8972 -88.8975 245° Southwest 388 447 40,000  Level Memphis Center
Tue 02:57:56 AM 32.8503 -89.0094 243° Southwest 383 441 40,000  Level Memphis Center
Tue 02:58:56 AM 32.8036 -89.1189 243° Southwest 383 441 40,000  Level Memphis Center
Tue 02:59:56 AM 32.7567 -89.2308 244° Southwest 383 441 40,000  Level Memphis Center
Tue 03:00:56 AM 32.7075 -89.3425 242° Southwest 383 441 40,000  Level Memphis Center
Tue 03:01:56 AM 32.6622 -89.4567 245° Southwest 388 447 40,000  Level Memphis Center
Tue 03:02:56 AM 32.6150 -89.5681 243° Southwest 388 447 40,000  Level Memphis Center
Tue 03:03:56 AM 32.5656 -89.6794 242° Southwest 388 447 40,000  Level Memphis Center
Tue 03:04:56 AM 32.5183 -89.7906 243° Southwest 388 447 40,000  Level Memphis Center
Tue 03:05:56 AM 32.4728 -89.9017 244° Southwest 388 447 40,000  Level Memphis Center
Tue 03:06:56 AM 32.4250 -90.0128 243° Southwest 388 447 40,000  Level Memphis Center
Tue 03:09:12 AM 32.3186 -90.2653 244° Southwest 381 438 40,000  Level Houston Center
Tue 03:10:12 AM 32.2711 -90.3753 243° Southwest 377 434 40,000  Level Houston Center
Tue 03:11:12 AM 32.2236 -90.4864 243° Southwest 380 437 40,000 -50 Level Houston Center
Tue 03:12:12 AM 32.1761 -90.5961 243° Southwest 377 434 39,900 -50 Descending Houston Center
Tue 03:13:12 AM 32.1278 -90.7072 243° Southwest 381 438 39,900 50 Level Houston Center
Tue 03:14:12 AM 32.0817 -90.8158 243° Southwest 380 437 40,000 50 Climbing Houston Center
Tue 03:15:13 AM 32.0336 -90.9261 243° Southwest 380 437 40,000  Level Houston Center
Tue 03:16:13 AM 31.9861 -91.0383 244° Southwest 381 438 40,000  Level Houston Center
Tue 03:17:13 AM 31.9347 -91.1486 241° Southwest 382 440 40,000  Level Houston Center
Tue 03:18:13 AM 31.8869 -91.2608 243° Southwest 383 441 40,000  Level Houston Center
Tue 03:19:13 AM 31.8369 -91.3719 242° Southwest 385 443 40,000  Level Houston Center
Tue 03:20:13 AM 31.7878 -91.4839 243° Southwest 386 444 40,000  Level Houston Center
Tue 03:21:13 AM 31.7389 -91.5953 243° Southwest 386 444 40,000  Level Houston Center
Tue 03:22:13 AM 31.6875 -91.7069 242° Southwest 386 444 40,000  Level Houston Center
Tue 03:23:14 AM 31.6386 -91.8186 243° Southwest 386 444 40,000  Level Houston Center
Tue 03:24:14 AM 31.5886 -91.9292 242° Southwest 386 444 40,000 -50 Level Houston Center
Tue 03:25:14 AM 31.5378 -92.0403 242° Southwest 386 444 39,900  Descending Houston Center
Tue 03:26:14 AM 31.4847 -92.1511 241° Southwest 390 449 40,000  Climbing Houston Center
Tue 03:27:14 AM 31.4344 -92.2614 242° Southwest 386 444 39,900  Descending Houston Center
Tue 03:28:14 AM 31.3850 -92.3711 242° Southwest 384 442 40,000  Climbing Houston Center
Tue 03:29:14 AM 31.3364 -92.4814 243° Southwest 382 440 39,900  Descending Houston Center
Tue 03:30:14 AM 31.2858 -92.5911 242° Southwest 383 441 40,000 50 Climbing Houston Center
Tue 03:31:14 AM 31.2375 -92.7017 243° Southwest 383 441 40,000  Level Houston Center
Tue 03:32:15 AM 31.1864 -92.8114 241° Southwest 383 441 40,000 -50 Level Houston Center
Tue 03:33:15 AM 31.1361 -92.9203 242° Southwest 381 438 39,900  Descending Houston Center
Tue 03:34:15 AM 31.0858 -93.0303 242° Southwest 385 443 40,000 50 Climbing Houston Center
Tue 03:35:15 AM 31.0369 -93.1383 242° Southwest 381 438 40,000 -50 Level Houston Center
Tue 03:36:15 AM 30.9858 -93.2483 242° Southwest 385 443 39,900  Descending Houston Center
Tue 03:37:15 AM 30.9353 -93.3558 241° Southwest 382 440 40,000  Climbing Houston Center
Tue 03:38:15 AM 30.8844 -93.4644 241° Southwest 383 441 39,900 -50 Descending Houston Center
Tue 03:39:16 AM 30.8239 -93.5942 241° Southwest 383 441 39,900 -198 Level Houston Center
Tue 03:40:16 AM 30.7731 -93.7017 241° Southwest 383 441 39,500 -577 Descending Houston Center
Tue 03:41:00 AM 30.7364 -93.7800 241° Southwest 387 445 38,900 -1,400 Descending Houston Center
Tue 03:41:16 AM 30.7219 -93.8131 243° Southwest 392 451 38,100 -3,000 Descending Houston Center
Tue 03:42:00 AM 30.6792 -93.9000 240° Southwest 404 465 35,900 -3,300 Descending Houston Center
Tue 03:42:16 AM 30.6664 -93.9256 240° Southwest 402 463 34,800 -4,036 Descending Houston Center
Tue 03:42:55 AM 30.6306 -94.0014 241° Southwest 410 472 32,200 -4,100 Descending Houston Center
Tue 03:43:16 AM 30.6111 -94.0439 242° Southwest 418 481 30,700 -4,328 Descending Houston Center
Tue 03:43:56 AM 30.5717 -94.1258 241° Southwest 425 489 27,800 -3,900 Descending Houston Center
Tue 03:44:16 AM 30.5547 -94.1619 241° Southwest 422 486 26,800 -1,600 Descending Houston Center
Tue 03:44:56 AM 30.5181 -94.2400 241° Southwest 419 482 26,200 -885 Descending Houston Center
Tue 03:45:17 AM 30.4992 -94.2794 241° Southwest 419 482 25,900 -984 Descending Houston Center
Tue 03:45:57 AM 30.4589 -94.3642 241° Southwest 418 481 25,200 -1,000 Descending Houston Center
Tue 03:46:17 AM 30.4431 -94.3958 240° Southwest 418 481 24,900 -1,200 Descending Houston Center
Tue 03:46:57 AM 30.4050 -94.4781 242° Southwest 413 475 24,000 -1,800 Descending Houston Center
Tue 03:47:17 AM 30.3864 -94.5167 241° Southwest 412 474 23,100 -3,134 Descending Houston Center
Tue 03:48:04 AM 30.3436 -94.6047 241° Southwest 388 447 20,500 -3,222 Descending Houston Center
Tue 03:49:05 AM 30.2928 -94.7081 240° Southwest 368 423 17,300 -2,628 Descending Houston Center
Tue 03:50:05 AM 30.2436 -94.8086 241° Southwest 355 409 15,200 -2,033 Descending Houston Center
Tue 03:51:06 AM 30.1961 -94.9067 241° Southwest 352 405 13,200 -1,736 Descending Houston Center
Tue 03:52:06 AM 30.1486 -95.0044 241° Southwest 344 396 11,700 -1,339 Descending Houston Center
Tue 03:53:07 AM 30.1031 -95.0994 241° Southwest 312 359 10,500 -1,230 Descending Houston Center
Tue 03:54:08 AM 30.0878 -95.1858 258° West 273 314 9,200 -1,537 Descending Houston Center
Tue 03:55:08 AM 30.0917 -95.2722 273° West 267 307 7,400 -1,488 Descending Houston Center
Tue 03:56:09 AM 30.0994 -95.3583 276° West 278 320 6,200 -893 Descending Houston Center
Tue 03:57:09 AM 30.1050 -95.4422 274° West 254 292 5,600 -942 Descending Houston Center
Tue 03:58:10 AM 30.1119 -95.5186 276° West 232 267 4,300 -787 Descending Houston Center
Tue 03:59:11 AM 30.1175 -95.5783 276° West 179 206 4,000 -149 Descending Houston Center
Tue 04:00:11 AM 30.0789 -95.5925 198° South 125 144 4,000  Level Houston Center
Tue 04:01:12 AM 30.0394 -95.5997 189° South 141 162 4,000  Level Houston Center
Tue 04:02:12 AM 30.0017 -95.5753 151° Southeast 185 213 4,000 -567 Level Houston Center
Tue 04:03:19 AM 29.9917 -95.5111 100° East 218 251 2,800 -1,131 Descending Houston Center
Tue 04:04:14 AM 29.9928 -95.4531 89° East 186 214 1,700 -887 Descending Houston Center
Tue 04:05:14 AM 29.9931 -95.4097 90° East 122 140 1,100 -645 Descending Houston Center
Tue 04:06:15 AM 29.9933 -95.3686 90° East 122 140 400 -689 Descending Houston Center

Login

Don't have an account? Register now (free) for customized features, flight alerts, and more!